.
WxDataArchive / Data Records for 2009-07-06
2009-07-05 July 2009 2009-07-07

Data Records for Monday, 06 July 2009

Time	Temp	Chill	HIndex	Humid	Dewpt	 Wind 	HiWind	WindDir	Rain 	Barom 
-----	----	-----	------	-----	-----	------	------	-------	-----	----- 
00:00	66.6	66.6	66.6	67	55.3	0	0	---	0.00	29.892 
00:05	66.3	66.3	66.3	67	55.0	0	0	---	0.00	29.892 
00:10	66.0	66.0	66.0	68	55.1	0	0	---	0.00	29.892 
00:15	65.6	65.6	65.6	69	55.1	0	0	---	0.00	29.890 
00:20	65.3	65.3	65.3	69	54.9	0	0	---	0.00	29.890 
00:25	65.0	65.0	65.0	70	55.0	0	0	---	0.00	29.890 
00:30	64.7	64.7	64.7	70	54.7	0	0	---	0.00	29.891 
00:35	64.3	64.3	64.3	71	54.7	0	0	---	0.00	29.891 
00:40	64.0	64.0	64.0	71	54.4	0	0	---	0.00	29.891 
00:45	63.7	63.7	63.7	72	54.5	0	0	---	0.00	29.885 
00:50	63.4	63.4	63.4	73	54.6	0	0	---	0.00	29.885 
00:55	63.1	63.1	63.1	74	54.7	0	0	---	0.00	29.885 
01:00	62.7	62.7	62.7	75	54.7	0	0	---	0.00	29.884 
01:05	62.4	62.4	62.4	76	54.7	0	0	---	0.00	29.884 
01:10	62.3	62.3	62.3	77	55.0	0	0	---	0.00	29.884 
01:15	62.0	62.0	62.0	77	54.7	0	0	---	0.00	29.878 
01:20	61.6	61.6	61.6	78	54.7	0	0	---	0.00	29.878 
01:25	61.3	61.3	61.3	78	54.4	0	0	---	0.00	29.878 
01:30	61.0	61.0	61.0	79	54.4	0	0	---	0.00	29.876 
01:35	60.7	60.7	60.7	80	54.5	0	0	---	0.00	29.876 
01:40	60.5	60.5	60.5	81	54.6	0	0	---	0.00	29.876 
01:45	60.4	60.4	60.4	82	54.9	0	0	---	0.00	29.875 
01:50	60.2	60.2	60.2	83	55.0	0	0	---	0.00	29.875 
01:55	60.2	60.2	60.2	83	55.0	0	0	---	0.00	29.875 
02:00	59.9	59.9	59.9	83	54.7	0	0	---	0.00	29.873 
02:05	59.8	59.8	59.8	83	54.6	0	0	---	0.00	29.873 
02:10	59.6	59.6	59.6	84	54.8	0	0	---	0.00	29.873 
02:15	59.5	59.5	59.5	84	54.7	0	0	---	0.00	29.865 
02:20	59.3	59.3	59.3	85	54.8	0	0	---	0.00	29.865 
02:25	59.2	59.2	59.2	85	54.7	0	0	---	0.00	29.865 
02:30	59.0	59.0	59.0	85	54.5	0	0	---	0.00	29.869 
02:35	58.7	58.7	58.7	86	54.5	0	0	---	0.00	29.869 
02:40	58.6	58.6	58.6	86	54.4	0	0	---	0.00	29.869 
02:45	58.4	58.4	58.4	87	54.5	0	0	---	0.00	29.867 
02:50	58.3	58.3	58.3	87	54.4	0	0	---	0.00	29.867 
02:55	58.1	58.1	58.1	87	54.2	0	0	---	0.00	29.867 
03:00	58.0	58.0	58.0	88	54.5	0	0	---	0.00	29.866 
03:05	58.0	58.0	58.0	88	54.5	0	0	---	0.00	29.866 
03:10	57.8	57.8	57.8	88	54.3	0	0	---	0.00	29.866 
03:15	57.8	57.8	57.8	88	54.3	0	0	---	0.00	29.863 
03:20	57.8	57.8	57.8	88	54.3	0	0	---	0.00	29.863 
03:25	58.0	58.0	58.0	89	54.8	0	0	---	0.00	29.863 
03:30	58.1	58.1	58.1	88	54.6	0	0	---	0.00	29.863 
03:35	58.1	58.1	58.1	88	54.6	0	0	---	0.00	29.863 
03:40	58.1	58.1	58.1	88	54.6	0	0	---	0.00	29.863 
03:45	58.1	58.1	58.1	88	54.6	0	0	---	0.00	29.863 
03:50	58.0	58.0	58.0	88	54.5	0	0	---	0.00	29.863 
03:55	57.8	57.8	57.8	88	54.3	0	0	---	0.00	29.863 
04:00	57.6	57.6	57.6	88	54.1	0	0	---	0.00	29.859 
04:05	57.5	57.5	57.5	88	54.0	0	0	---	0.00	29.859 
04:10	57.2	57.2	57.2	88	53.7	0	0	---	0.00	29.859 
04:15	57.2	57.2	57.2	89	54.0	0	0	---	0.00	29.854 
04:20	57.0	57.0	57.0	89	53.8	0	0	---	0.00	29.854 
04:25	57.0	57.0	57.0	90	54.1	0	0	---	0.00	29.854 
04:30	57.2	57.2	57.2	90	54.3	0	0	---	0.00	29.858 
04:35	57.2	57.2	57.2	90	54.3	0	0	---	0.00	29.858 
04:40	57.2	57.2	57.2	90	54.3	0	0	---	0.00	29.858 
04:45	57.2	57.2	57.2	90	54.3	0	0	---	0.00	29.858 
04:50	57.3	57.3	57.3	90	54.4	0	0	---	0.00	29.858 
04:55	57.3	57.3	57.3	90	54.4	0	0	---	0.00	29.858 
05:00	57.3	57.3	57.3	90	54.4	0	0	---	0.00	29.858 
05:05	57.5	57.5	57.5	89	54.3	0	0	---	0.00	29.858 
05:10	57.5	57.5	57.5	89	54.3	0	0	---	0.00	29.858 
05:15	57.3	57.3	57.3	89	54.1	0	0	---	0.00	29.861 
05:20	57.3	57.3	57.3	88	53.8	0	0	---	0.00	29.861 
05:25	57.2	57.2	57.2	89	54.0	0	0	---	0.00	29.861 
05:30	57.0	57.0	57.0	89	53.8	0	0	---	0.00	29.863 
05:35	56.9	56.9	56.9	89	53.7	0	0	---	0.00	29.863 
05:40	56.9	56.9	56.9	89	53.7	0	0	---	0.00	29.863 
05:45	56.9	56.9	56.9	89	53.7	0	0	---	0.00	29.863 
05:50	56.9	56.9	56.9	90	54.0	0	0	---	0.00	29.863 
05:55	56.9	56.9	56.9	90	54.0	0	0	---	0.00	29.863 
06:00	56.9	56.9	56.9	90	54.0	0	0	---	0.00	29.861 
06:05	56.9	56.9	56.9	90	54.0	0	0	---	0.00	29.861 
06:10	56.9	56.9	56.9	90	54.0	0	0	---	0.00	29.861 
06:15	56.7	56.7	56.7	90	53.8	0	0	---	0.00	29.866 
06:20	56.7	56.7	56.7	90	53.8	0	0	---	0.00	29.866 
06:25	56.6	56.6	56.6	90	53.7	0	0	---	0.00	29.866 
06:30	56.6	56.6	56.6	91	54.0	0	0	---	0.00	29.873 
06:35	56.6	56.6	56.6	91	54.0	0	0	---	0.00	29.873 
06:40	56.7	56.7	56.7	91	54.1	0	0	---	0.00	29.873 
06:45	56.7	56.7	56.7	91	54.1	0	0	---	0.00	29.877 
06:50	56.7	56.7	56.7	91	54.1	0	0	---	0.00	29.877 
06:55	56.7	56.7	56.7	91	54.1	0	0	---	0.00	29.877 
07:00	56.9	56.9	56.9	91	54.3	0	0	---	0.00	29.882 
07:05	57.0	57.0	57.0	91	54.4	0	0	---	0.00	29.882 
07:10	57.2	57.2	57.2	91	54.6	0	0	---	0.00	29.882 
07:15	57.3	57.3	57.3	92	55.0	0	0	---	0.00	29.882 
07:20	57.6	57.6	57.6	92	55.3	0	0	---	0.00	29.882 
07:25	58.3	58.3	58.3	91	55.7	0	0	---	0.00	29.882 
07:30	58.9	58.9	58.9	90	56.0	0	0	---	0.00	29.886 
07:35	59.6	59.6	59.6	88	56.0	0	0	---	0.00	29.886 
07:40	60.5	60.5	60.5	85	56.0	0	0	---	0.00	29.886 
07:45	61.3	61.3	61.3	83	56.1	0	0	---	0.00	29.889 
07:50	62.3	62.3	62.3	81	56.4	0	0	---	0.00	29.889 
07:55	63.1	63.1	63.1	78	56.1	0	2	270	0.00	29.889 
08:00	63.5	63.5	63.5	77	56.2	0	1	270	0.00	29.889 
08:05	64.0	64.0	64.0	76	56.3	0	1	270	0.00	29.889 
08:10	64.5	64.5	64.5	75	56.4	0	1	270	0.00	29.889 
08:15	65.0	65.0	65.0	74	56.5	0	2	270	0.00	29.889 
08:20	65.5	65.5	65.5	74	57.0	0	1	270	0.00	29.889 
08:25	66.3	66.3	66.3	73	57.4	0	2	270	0.00	29.889 
08:30	66.8	66.8	66.8	71	57.1	0	2	270	0.00	29.890 
08:35	67.1	67.1	67.1	71	57.4	0	1	338	0.00	29.890 
08:40	67.6	67.6	67.6	70	57.5	1	2	338	0.00	29.890 
08:45	68.3	68.3	68.3	68	57.3	0	2	338	0.00	29.888 
08:50	69.1	69.1	69.1	67	57.7	1	2	338	0.00	29.888 
08:55	69.8	69.8	69.8	65	57.5	1	2	338	0.00	29.888 
09:00	70.4	70.4	70.4	63	57.2	0	2	338	0.00	29.884 
09:05	70.9	70.9	70.9	62	57.2	1	2	338	0.00	29.884 
09:10	71.6	71.6	71.6	61	57.4	1	3	338	0.00	29.884 
09:15	72.1	72.1	72.1	59	57.0	1	3	338	0.00	29.882 
09:20	72.5	72.5	72.5	60	57.8	1	3	338	0.00	29.882 
09:25	72.8	72.8	72.8	58	57.1	1	3	315	0.00	29.882 
09:30	73.2	73.2	73.2	57	57.0	2	4	292	0.00	29.884 
09:35	73.5	73.5	73.5	55	56.3	1	4	270	0.00	29.884 
09:40	73.9	73.9	73.9	54	56.2	1	4	292	0.00	29.884 
09:45	74.2	74.2	74.2	55	57.0	1	4	292	0.00	29.883 
09:50	74.4	74.4	74.4	54	56.7	1	3	315	0.00	29.883 
09:55	74.7	74.7	74.7	52	55.9	2	4	270	0.00	29.883 
10:00	74.9	74.9	74.9	54	57.1	1	3	315	0.00	29.880 
10:05	75.3	75.3	77.7	53	57.0	1	3	315	0.00	29.880 
10:10	75.6	75.6	77.9	51	56.2	1	3	315	0.00	29.880 
10:15	76.0	76.0	78.1	51	56.5	1	3	292	0.00	29.876 
10:20	76.3	76.3	78.2	49	55.7	1	4	292	0.00	29.876 
10:25	76.5	76.5	78.3	50	56.5	1	3	292	0.00	29.876 
10:30	76.8	76.8	78.4	47	55.0	1	3	292	0.00	29.874 
10:35	77.0	77.0	78.5	47	55.2	2	3	292	0.00	29.874 
10:40	77.2	77.2	78.5	45	54.2	2	6	292	0.00	29.874 
10:45	77.6	77.6	78.8	45	54.6	1	3	270	0.00	29.873 
10:50	77.6	77.6	78.8	45	54.6	1	3	292	0.00	29.873 
10:55	77.9	77.9	78.9	44	54.2	2	3	292	0.00	29.873 
11:00	78.3	78.3	79.1	43	53.9	1	2	292	0.00	29.871 
11:05	78.8	78.8	79.3	42	53.7	1	3	292	0.00	29.871 
11:10	79.0	79.0	79.4	41	53.3	1	3	292	0.00	29.871 
11:15	79.2	79.2	79.3	39	52.1	1	4	315	0.00	29.870 
11:20	79.2	79.2	79.3	38	51.4	1	3	315	0.00	29.870 
11:25	79.4	79.4	79.3	37	50.8	2	6	270	0.00	29.870 
11:30	79.4	79.4	79.2	36	50.1	1	4	292	0.00	29.864 
11:35	79.9	79.9	79.6	36	50.5	1	4	270	0.00	29.864 
11:40	79.0	79.0	79.2	38	51.2	1	3	315	0.00	29.864 
11:45	79.2	79.2	79.1	35	49.2	2	4	292	0.00	29.862 
11:50	79.4	79.4	79.0	32	46.9	2	4	292	0.00	29.862 
11:55	80.1	80.1	79.7	36	50.7	1	4	292	0.00	29.862 
12:00	80.9	80.9	80.1	35	50.7	2	5	45	0.00	29.863 
12:05	80.3	80.3	79.5	32	47.7	2	4	292	0.00	29.863 
12:10	80.3	80.3	79.6	33	48.5	1	5	292	0.00	29.863 
12:15	80.9	80.9	80.0	33	49.1	2	3	315	0.00	29.865 
12:20	81.1	81.1	79.9	31	47.6	2	5	292	0.00	29.865 
12:25	80.5	80.5	79.7	33	48.7	1	5	292	0.00	29.865 
12:30	80.7	80.7	79.8	33	48.9	1	3	292	0.00	29.861 
12:35	81.2	81.2	80.2	33	49.3	2	4	270	0.00	29.861 
12:40	81.4	81.4	80.2	32	48.7	2	5	270	0.00	29.861 
12:45	81.4	81.4	80.2	32	48.7	2	5	292	0.00	29.859 
12:50	80.9	80.9	80.0	33	49.1	1	5	270	0.00	29.859 
12:55	80.7	80.7	79.7	31	47.2	1	4	270	0.00	29.859 
13:00	80.1	80.1	79.4	32	47.6	2	5	292	0.00	29.857 
13:05	80.1	80.1	79.4	32	47.6	1	4	292	0.00	29.857 
13:10	80.1	80.1	79.5	34	49.2	2	4	292	0.00	29.857 
13:15	80.3	80.3	79.7	34	49.3	1	3	292	0.00	29.860 
13:20	81.1	81.1	80.2	34	50.0	1	5	315	0.00	29.860 
13:25	81.6	81.6	80.3	31	48.0	3	6	270	0.00	29.860 
13:30	81.6	81.6	80.2	30	47.1	2	4	292	0.00	29.855 
13:35	82.0	82.0	80.7	32	49.2	1	2	270	0.00	29.855 
13:40	81.8	81.8	80.3	30	47.3	1	4	292	0.00	29.855 
13:45	80.9	80.9	79.7	29	45.6	2	4	270	0.00	29.853 
13:50	81.6	81.6	80.1	29	46.2	2	4	270	0.00	29.853 
13:55	82.0	82.0	80.5	30	47.5	2	4	315	0.00	29.853 
14:00	82.0	82.0	80.3	28	45.7	2	9	270	0.00	29.851 
14:05	81.1	81.1	79.9	30	46.7	1	2	270	0.00	29.851 
14:10	81.2	81.2	79.9	30	46.8	1	3	292	0.00	29.851 
14:15	82.2	82.2	80.5	28	45.8	2	5	270	0.00	29.847 
14:20	81.6	81.6	80.0	27	44.4	1	4	270	0.00	29.847 
14:25	81.2	81.2	79.9	30	46.8	1	5	270	0.00	29.847 
14:30	81.1	81.1	79.8	29	45.8	2	4	292	0.00	29.847 
14:35	80.9	80.9	79.9	32	48.2	1	4	292	0.00	29.847 
14:40	81.4	81.4	80.2	32	48.7	1	3	292	0.00	29.847 
14:45	82.0	82.0	80.6	31	48.4	1	4	270	0.00	29.845 
14:50	81.6	81.6	80.1	29	46.2	1	3	315	0.00	29.845 
14:55	80.9	80.9	79.8	31	47.4	2	3	315	0.00	29.845 
15:00	81.4	81.4	80.1	31	47.8	2	5	270	0.00	29.845 
15:05	81.6	81.6	80.1	29	46.2	2	5	292	0.00	29.845 
15:10	81.2	81.2	80.0	31	47.7	1	4	292	0.00	29.845 
15:15	81.1	81.1	80.0	32	48.4	2	4	315	0.00	29.838 
15:20	81.8	81.8	80.4	31	48.2	2	6	270	0.00	29.838 
15:25	81.1	81.1	79.9	31	47.6	1	3	270	0.00	29.838 
15:30	80.7	80.7	79.8	33	48.9	1	3	270	0.00	29.834 
15:35	81.2	81.2	80.2	33	49.3	2	5	315	0.00	29.834 
15:40	82.4	82.4	81.0	33	50.4	1	3	315	0.00	29.834 
15:45	82.4	82.4	80.9	32	49.5	2	8	315	0.00	29.832 
15:50	82.0	82.0	80.7	32	49.2	1	5	315	0.00	29.832 
15:55	82.0	82.0	80.7	32	49.2	1	4	315	0.00	29.832 
16:00	82.0	82.0	80.6	31	48.4	2	5	315	0.00	29.830 
16:05	82.0	82.0	80.7	32	49.2	2	5	292	0.00	29.830 
16:10	82.4	82.4	80.9	32	49.5	1	4	315	0.00	29.830 
16:15	82.4	82.4	80.9	31	48.7	2	4	315	0.00	29.827 
16:20	81.6	81.6	80.3	31	48.0	1	3	315	0.00	29.827 
16:25	81.8	81.8	80.5	32	49.0	1	5	315	0.00	29.827 
16:30	82.2	82.2	80.6	30	47.7	2	7	270	0.00	29.823 
16:35	81.4	81.4	80.1	31	47.8	2	9	270	0.00	29.823 
16:40	81.4	81.4	80.4	34	50.3	2	9	292	0.00	29.823 
16:45	82.0	82.0	80.6	31	48.4	3	8	315	0.00	29.823 
16:50	81.6	81.6	80.2	30	47.1	3	5	270	0.00	29.823 
16:55	81.1	81.1	79.9	31	47.6	1	7	292	0.00	29.823 
17:00	81.2	81.2	79.9	30	46.8	3	4	270	0.00	29.826 
17:05	81.6	81.6	80.3	31	48.0	2	5	270	0.00	29.826 
17:10	82.0	82.0	80.4	29	46.6	3	5	270	0.00	29.826 
17:15	82.0	82.0	80.4	29	46.6	2	6	292	0.00	29.825 
17:20	82.2	82.2	80.5	28	45.8	2	3	292	0.00	29.825 
17:25	82.4	82.4	80.7	29	46.9	3	7	315	0.00	29.825 
17:30	82.2	82.2	80.5	28	45.8	2	5	315	0.00	29.828 
17:35	82.4	82.4	80.6	28	46.0	2	5	292	0.00	29.828 
17:40	82.8	82.8	80.8	27	45.4	3	7	270	0.00	29.828 
17:45	82.4	82.4	80.5	27	45.0	2	4	292	0.00	29.823 
17:50	82.4	82.4	80.6	28	46.0	1	5	315	0.00	29.823 
17:55	82.2	82.2	80.5	29	46.8	2	4	292	0.00	29.823 
18:00	82.4	82.4	80.5	27	45.0	1	5	292	0.00	29.822 
18:05	82.0	82.0	80.3	28	45.7	3	4	315	0.00	29.822 
18:10	81.6	81.6	80.1	28	45.3	2	5	292	0.00	29.822 
18:15	81.4	81.4	80.0	29	46.1	3	7	292	0.00	29.818 
18:20	81.1	81.1	79.8	29	45.8	2	5	292	0.00	29.818 
18:25	80.9	80.9	79.7	29	45.6	3	6	270	0.00	29.818 
18:30	80.9	80.9	79.7	29	45.6	2	5	315	0.00	29.824 
18:35	80.9	80.9	79.8	31	47.4	1	5	315	0.00	29.824 
18:40	80.7	80.7	79.6	30	46.4	2	6	315	0.00	29.824 
18:45	80.7	80.7	79.5	29	45.5	2	5	315	0.00	29.826 
18:50	80.5	80.5	79.6	31	47.1	2	5	270	0.00	29.826 
18:55	80.3	80.3	79.4	30	46.0	2	5	315	0.00	29.826 
19:00	79.9	79.9	79.2	31	46.5	2	6	315	0.00	29.824 
19:05	79.9	79.9	79.3	32	47.4	1	5	292	0.00	29.824 
19:10	79.9	79.9	79.2	31	46.5	2	4	292	0.00	29.824 
19:15	79.8	79.8	79.1	31	46.5	2	5	292	0.00	29.814 
19:20	79.8	79.8	79.2	32	47.3	1	3	292	0.00	29.814 
19:25	79.8	79.8	79.2	32	47.3	1	3	270	0.00	29.814 
19:30	79.6	79.6	79.2	33	47.9	1	4	270	0.00	29.814 
19:35	79.6	79.6	79.2	33	47.9	0	1	270	0.00	29.814 
19:40	79.4	79.4	79.1	34	48.6	0	2	270	0.00	29.814 
19:45	79.2	79.2	79.0	34	48.4	1	2	315	0.00	29.814 
19:50	79.0	79.0	78.9	34	48.2	1	3	270	0.00	29.814 
19:55	78.8	78.8	79.0	37	50.3	0	3	292	0.00	29.814 
20:00	78.5	78.5	78.7	36	49.3	0	2	292	0.00	29.813 
20:05	78.3	78.3	78.6	36	49.1	0	1	292	0.00	29.813 
20:10	78.1	78.1	78.6	37	49.7	0	2	292	0.00	29.813 
20:15	77.9	77.9	78.6	38	50.2	0	1	292	0.00	29.807 
20:20	77.6	77.6	78.4	38	50.0	0	1	292	0.00	29.807 
20:25	77.4	77.4	78.4	40	51.2	0	0	---	0.00	29.807 
20:30	77.0	77.0	78.2	40	50.8	0	0	---	0.00	29.809 
20:35	76.7	76.7	78.1	40	50.5	0	0	---	0.00	29.809 
20:40	76.5	76.5	78.1	42	51.7	0	0	---	0.00	29.809 
20:45	76.1	76.1	77.9	42	51.3	0	0	---	0.00	29.810 
20:50	75.8	75.8	77.8	43	51.7	0	0	---	0.00	29.810 
20:55	75.3	75.3	77.7	43	51.2	0	0	---	0.00	29.810 
21:00	74.9	74.9	74.9	44	51.5	0	0	---	0.00	29.812 
21:05	74.6	74.6	74.6	45	51.8	0	0	---	0.00	29.812 
21:10	74.0	74.0	74.0	46	51.9	0	0	---	0.00	29.812 
21:15	73.7	73.7	73.7	46	51.6	0	0	---	0.00	29.809 
21:20	73.2	73.2	73.2	47	51.7	0	0	---	0.00	29.809 
21:25	72.7	72.7	72.7	48	51.9	0	0	---	0.00	29.809 
21:30	72.3	72.3	72.3	49	52.1	0	0	---	0.00	29.812 
21:35	71.8	71.8	71.8	50	52.1	0	0	---	0.00	29.812 
21:40	71.5	71.5	71.5	51	52.4	0	0	---	0.00	29.812 
21:45	70.9	70.9	70.9	52	52.4	0	0	---	0.00	29.818 
21:50	70.6	70.6	70.6	53	52.6	0	0	---	0.00	29.818 
21:55	70.1	70.1	70.1	54	52.7	0	0	---	0.00	29.818 
22:00	69.8	69.8	69.8	55	52.9	0	0	---	0.00	29.818 
22:05	69.3	69.3	69.3	56	52.9	0	0	---	0.00	29.818 
22:10	68.9	68.9	68.9	57	53.0	0	0	---	0.00	29.818 
22:15	68.6	68.6	68.6	58	53.2	0	0	---	0.00	29.821 
22:20	68.3	68.3	68.3	59	53.4	0	0	---	0.00	29.821 
22:25	67.9	67.9	67.9	60	53.5	0	0	---	0.00	29.821 
22:30	67.6	67.6	67.6	61	53.7	0	0	---	0.00	29.822 
22:35	67.3	67.3	67.3	61	53.4	0	0	---	0.00	29.822 
22:40	66.9	66.9	66.9	62	53.4	0	0	---	0.00	29.822 
22:45	66.8	66.8	66.8	62	53.4	0	0	---	0.00	29.826 
22:50	66.6	66.6	66.6	63	53.6	0	0	---	0.00	29.826 
22:55	66.3	66.3	66.3	64	53.7	0	0	---	0.00	29.826 
23:00	66.1	66.1	66.1	65	54.0	0	0	---	0.00	29.824 
23:05	66.1	66.1	66.1	66	54.4	0	0	---	0.00	29.824 
23:10	66.0	66.0	66.0	67	54.7	0	0	---	0.00	29.824 
23:15	66.0	66.0	66.0	67	54.7	0	0	---	0.00	29.824 
23:20	65.8	65.8	65.8	66	54.1	0	0	---	0.00	29.824 
23:25	65.8	65.8	65.8	67	54.5	0	0	---	0.00	29.824 
23:30	65.6	65.6	65.6	67	54.3	0	0	---	0.00	29.824 
23:35	65.5	65.5	65.5	67	54.2	0	0	---	0.00	29.824 
23:40	65.3	65.3	65.3	67	54.1	0	0	---	0.00	29.824 
23:45	65.2	65.2	65.2	68	54.4	0	0	---	0.00	29.823 
23:50	65.0	65.0	65.0	69	54.6	0	0	---	0.00	29.823 
23:55	65.0	65.0	65.0	69	54.6	0	0	---	0.00	29.823 

CoCoRaHS
IN-AL-39
A2 Web Hosting
Creative Commons License
GoDaddy
search engine by freefind advanced

loaded 2018-11-14 00:36:58 • last modified 2010-11-18 10:43:29
Privacy PolicyDisclaimer
• wx.awcolley.com is powered by PmWiki v.2002016 •
• all content (unless otherwise noted) © 2018 A W Colley